Search for airport 
image banner adimage banner adimage banner ad
image banner ad

72PN - Distribution Center

Located in New Kingston, United States

ICAO - 72PN, IATA -

Data provided by Airmate  

General information

Coordinates: N40°13'40" W77°5'19"
Elevation is 454 feet MSL.
Magnetic variation is -10° East
View others Airports in Pennsylvania

Operational data

Special qualification required
Current time UTC:
Current local time:
Weather at : KCXY - Capital City ( 20 km )
METAR: KCXY 182356Z 21006KT 10SM CLR 24/07 A3025 RMK AO2 SLP244 T02390072 10278 20239 56007
View NOTAMs / SUP AIP / TFR affecting this airport [VIEW]
Communications frequencies: [VIEW]

Runways:

Airport contact information

Address: New Kingston United States

Satellite view of 72PN